Time;durP1;ratioP1;P1;durP2;ratioP2;P2;SDS_P1;SDS_P2;PMS_P1;PMS_P2;Temp;Humidity;BMP_temperature;BMP_pressure;BME280_temperature;BME280_humidity;BME280_pressure;Samples;Min_cycle;Max_cycle;Signal;HPM_P1;HPM_P2
2021/05/08 00:02:01;;;;;;;2.40;2.20;;;;;;;3.30;62.74;96782.59;5075355;28;20048;-79
2021/05/08 00:04:27;;;;;;;2.55;2.35;;;;;;;3.27;62.99;96780.34;5075362;28;20043;-79
2021/05/08 00:06:54;;;;;;;2.67;2.47;;;;;;;3.24;63.05;96786.66;5075267;28;20043;-79
2021/05/08 00:09:20;;;;;;;2.13;2.03;;;;;;;3.20;63.06;96783.56;5074164;28;20472;-79
2021/05/08 00:11:46;;;;;;;2.65;2.45;;;;;;;3.17;63.13;96791.69;5075121;28;20044;-79
2021/05/08 00:14:12;;;;;;;1.98;1.85;;;;;;;3.14;63.17;96781.63;5075220;28;20035;-79
2021/05/08 00:16:39;;;;;;;2.13;2.03;;;;;;;3.11;63.47;96792.34;5075549;28;20041;-79
2021/05/08 00:19:05;;;;;;;2.42;2.22;;;;;;;3.07;63.54;96785.84;5075063;28;20044;-79
2021/05/08 00:21:31;;;;;;;2.80;2.42;;;;;;;3.05;63.56;96783.41;5074582;28;20037;-79
2021/05/08 00:23:57;;;;;;;3.65;2.30;;;;;;;3.04;63.53;96776.63;5075433;28;20039;-79
2021/05/08 00:26:24;;;;;;;2.92;2.63;;;;;;;3.02;63.70;96778.56;5074715;28;20048;-79
2021/05/08 00:28:52;;;;;;;2.90;2.22;;;;;;;2.99;63.97;96784.06;5074524;28;20135;-79
2021/05/08 00:31:19;;;;;;;2.33;2.13;;;;;;;2.94;64.04;96782.91;5074752;28;20469;-79
2021/05/08 00:33:45;;;;;;;2.33;2.20;;;;;;;2.90;63.99;96779.88;5073667;28;20044;-79
2021/05/08 00:36:11;;;;;;;2.35;2.20;;;;;;;2.89;64.08;96780.00;5074651;28;20037;-79
2021/05/08 00:38:37;;;;;;;2.85;2.65;;;;;;;2.84;64.28;96772.72;5075176;28;20044;-79
2021/05/08 00:41:04;;;;;;;2.50;2.35;;;;;;;2.82;64.28;96782.44;5074843;28;20051;-79
2021/05/08 00:43:30;;;;;;;2.50;2.30;;;;;;;2.79;64.34;96783.59;5074359;28;20036;-79
2021/05/08 00:45:57;;;;;;;2.85;2.38;;;;;;;2.75;64.43;96779.69;5074284;28;20037;-79
2021/05/08 00:48:24;;;;;;;3.13;2.85;;;;;;;2.74;64.55;96785.81;5074513;28;20043;-79
2021/05/08 00:50:52;;;;;;;2.63;2.42;;;;;;;2.71;64.54;96774.97;5074023;28;20501;-79
2021/05/08 00:53:18;;;;;;;2.75;2.55;;;;;;;2.69;64.79;96782.09;5074634;28;20154;-79
2021/05/08 00:55:45;;;;;;;2.90;2.60;;;;;;;2.69;64.91;96782.91;5072373;28;20406;-79
2021/05/08 00:58:11;;;;;;;2.90;2.70;;;;;;;2.68;64.99;96783.88;5073411;28;20049;-78
2021/05/08 01:00:38;;;;;;;2.85;2.55;;;;;;;2.67;65.08;96779.69;5074156;28;20056;-79
2021/05/08 01:03:06;;;;;;;3.13;2.92;;;;;;;2.64;65.19;96788.56;5074129;28;20067;-79
2021/05/08 01:05:33;;;;;;;3.83;2.78;;;;;;;2.62;65.27;96789.69;5073720;28;20092;-79
2021/05/08 01:08:04;;;;;;;3.28;3.08;;;;;;;2.60;65.88;96787.28;5074241;28;20059;-79
2021/05/08 01:10:31;;;;;;;3.42;3.13;;;;;;;2.58;65.42;96781.44;5073653;28;20039;-79
2021/05/08 01:12:59;;;;;;;2.75;2.55;;;;;;;2.56;65.54;96779.97;5073780;28;20044;-79
2021/05/08 01:15:26;;;;;;;3.22;3.00;;;;;;;2.54;65.66;96780.16;5073810;28;20043;-78
2021/05/08 01:17:53;;;;;;;3.08;2.72;;;;;;;2.49;65.51;96768.63;5073529;28;20040;-79
2021/05/08 01:20:20;;;;;;;2.55;2.35;;;;;;;2.47;65.71;96773.16;5073479;28;20051;-79
2021/05/08 01:22:49;;;;;;;2.85;2.40;;;;;;;2.45;65.82;96781.06;5074166;28;20032;-79
2021/05/08 01:25:22;;;;;;;2.50;2.30;;;;;;;2.40;66.42;96778.16;5073380;28;20492;-79
2021/05/08 01:27:50;;;;;;;2.63;2.42;;;;;;;2.38;66.24;96780.91;5073460;28;20044;-79
2021/05/08 01:30:20;;;;;;;2.63;2.42;;;;;;;2.36;66.59;96776.84;5074064;28;20041;-79
2021/05/08 01:32:47;;;;;;;2.40;2.20;;;;;;;2.35;66.21;96770.88;5073759;28;20039;-79
2021/05/08 01:35:14;;;;;;;2.88;2.30;;;;;;;2.35;66.44;96762.28;5073359;28;20040;-79
2021/05/08 01:37:41;;;;;;;2.75;2.55;;;;;;;2.36;66.46;96769.09;5073054;28;20041;-79
2021/05/08 01:40:12;;;;;;;2.63;2.42;;;;;;;2.36;66.72;96763.91;5073266;28;20389;-79
2021/05/08 01:42:42;;;;;;;3.03;2.83;;;;;;;2.36;67.14;96758.75;5073826;28;20025;-79
2021/05/08 01:45:12;;;;;;;2.58;2.38;;;;;;;2.35;66.73;96755.34;5073545;28;20040;-79
2021/05/08 01:47:40;;;;;;;2.33;2.10;;;;;;;2.34;66.92;96753.72;5073359;28;20033;-79
2021/05/08 01:50:10;;;;;;;2.60;2.45;;;;;;;2.32;66.99;96754.84;5073337;28;20036;-79
2021/05/08 01:52:36;;;;;;;2.60;2.40;;;;;;;2.33;66.98;96746.94;5073292;28;20373;-79
2021/05/08 01:55:11;;;;;;;2.17;2.00;;;;;;;2.31;67.59;96754.06;5073232;28;20032;-79
2021/05/08 01:57:39;;;;;;;2.30;2.10;;;;;;;2.30;67.27;96746.44;5072284;28;20473;-79
2021/05/08 02:00:09;;;;;;;2.53;2.33;;;;;;;2.29;67.26;96747.38;5073374;28;20048;-79
2021/05/08 02:02:35;;;;;;;2.70;2.50;;;;;;;2.26;67.16;96739.94;5073184;28;20472;-79
2021/05/08 02:05:02;;;;;;;2.33;2.17;;;;;;;2.25;67.21;96746.91;5073207;28;20052;-79
2021/05/08 02:07:28;;;;;;;2.67;2.47;;;;;;;2.22;67.33;96748.00;5072942;28;20044;-79
2021/05/08 02:09:54;;;;;;;2.38;2.17;;;;;;;2.19;67.47;96740.59;5073492;28;20047;-79
2021/05/08 02:12:20;;;;;;;2.50;2.30;;;;;;;2.18;67.44;96740.72;5072556;28;20059;-79
2021/05/08 02:14:46;;;;;;;2.38;2.28;;;;;;;2.15;67.44;96741.88;5073393;28;20036;-79
2021/05/08 02:17:12;;;;;;;2.25;2.08;;;;;;;2.12;67.38;96742.19;5072969;28;20037;-79
2021/05/08 02:19:38;;;;;;;2.05;1.95;;;;;;;2.11;67.50;96732.00;5072995;28;20041;-79
2021/05/08 02:22:05;;;;;;;2.70;2.13;;;;;;;2.09;67.57;96726.97;5072210;28;20040;-79
2021/05/08 02:24:33;;;;;;;2.10;2.00;;;;;;;2.06;67.75;96729.88;5073154;28;20040;-79
2021/05/08 02:27:00;;;;;;;2.40;2.20;;;;;;;2.05;67.85;96730.03;5073505;28;20040;-79
2021/05/08 02:29:26;;;;;;;2.15;2.03;;;;;;;2.01;67.63;96732.13;5077516;28;20043;-79
2021/05/08 02:31:52;;;;;;;2.28;2.13;;;;;;;1.98;67.61;96725.47;5075853;28;20051;-79
2021/05/08 02:34:18;;;;;;;2.28;2.17;;;;;;;1.96;67.56;96719.66;5077076;28;20045;-79
2021/05/08 02:36:44;;;;;;;2.70;2.10;;;;;;;1.93;67.77;96730.34;5076737;28;20040;-79
2021/05/08 02:39:10;;;;;;;2.35;2.20;;;;;;;1.94;67.81;96733.72;5076737;28;20037;-79
2021/05/08 02:41:36;;;;;;;3.45;2.67;;;;;;;1.90;68.02;96729.81;5076819;28;20484;-79
2021/05/08 02:44:03;;;;;;;2.95;2.65;;;;;;;1.90;68.04;96729.81;5076669;28;20032;-79
2021/05/08 02:46:29;;;;;;;2.67;2.47;;;;;;;1.88;68.01;96724.00;5076477;28;20032;-79
2021/05/08 02:48:55;;;;;;;2.90;2.70;;;;;;;1.87;68.19;96724.94;5076550;28;20043;-79
2021/05/08 02:51:22;;;;;;;2.67;2.00;;;;;;;1.86;68.25;96731.09;5076442;28;20067;-79
2021/05/08 02:53:48;;;;;;;2.58;2.30;;;;;;;1.81;68.32;96729.78;5076273;28;20044;-79
2021/05/08 02:56:14;;;;;;;2.40;2.20;;;;;;;1.77;68.23;96730.25;5076506;28;20048;-79
2021/05/08 02:58:40;;;;;;;2.53;2.15;;;;;;;1.74;68.25;96727.97;5074847;28;20064;-79
2021/05/08 03:01:06;;;;;;;2.60;2.40;;;;;;;1.70;68.09;96732.66;5076223;28;20116;-79
2021/05/08 03:03:33;;;;;;;2.22;2.13;;;;;;;1.67;68.24;96724.41;5076408;28;20047;-79
2021/05/08 03:05:59;;;;;;;2.67;2.47;;;;;;;1.64;68.47;96717.78;5076632;28;20051;-79
2021/05/08 03:08:25;;;;;;;2.10;2.00;;;;;;;1.61;68.59;96725.81;5076731;28;20036;-79
2021/05/08 03:10:51;;;;;;;2.33;2.13;;;;;;;1.62;68.61;96727.44;5075651;28;20037;-79
2021/05/08 03:13:17;;;;;;;2.92;2.35;;;;;;;1.61;68.68;96729.19;5075906;28;20032;-79
2021/05/08 03:15:45;;;;;;;2.58;2.38;;;;;;;1.60;68.60;96727.59;5076281;28;20040;-79
2021/05/08 03:18:11;;;;;;;3.63;2.20;;;;;;;1.60;68.85;96726.78;5076910;28;20047;-79
2021/05/08 03:20:38;;;;;;;2.40;2.20;;;;;;;1.58;68.91;96720.97;5075956;28;20055;-79
2021/05/08 03:23:04;;;;;;;2.45;2.25;;;;;;;1.59;69.09;96725.97;5075964;28;20036;-79
2021/05/08 03:25:30;;;;;;;2.63;2.40;;;;;;;1.59;69.08;96723.38;5076028;28;20044;-79
2021/05/08 03:27:56;;;;;;;2.50;2.30;;;;;;;1.59;69.14;96715.63;5076165;28;20362;-79
2021/05/08 03:30:23;;;;;;;2.88;2.47;;;;;;;1.59;69.16;96712.22;5074526;28;20048;-79
2021/05/08 03:32:49;;;;;;;2.72;2.53;;;;;;;1.61;69.17;96720.66;5075667;28;20029;-79
2021/05/08 03:35:15;;;;;;;3.08;2.50;;;;;;;1.59;69.13;96722.56;5074099;28;20044;-79
2021/05/08 03:37:41;;;;;;;2.40;2.28;;;;;;;1.59;69.18;96718.22;5074710;28;20029;-79
2021/05/08 03:40:08;;;;;;;2.42;2.22;;;;;;;1.60;69.51;96713.88;5075042;28;20048;-79
2021/05/08 03:42:34;;;;;;;2.50;2.30;;;;;;;1.62;69.34;96714.53;5075590;28;20043;-79
2021/05/08 03:45:00;;;;;;;2.50;2.30;;;;;;;1.61;69.31;96710.31;5075407;28;20036;-79
2021/05/08 03:47:26;;;;;;;2.35;2.17;;;;;;;1.61;69.61;96712.88;5075751;28;20032;-79
2021/05/08 03:49:52;;;;;;;2.38;2.17;;;;;;;1.60;69.34;96712.09;5075369;28;20048;-79
2021/05/08 03:52:19;;;;;;;2.78;2.58;;;;;;;1.58;69.44;96716.59;5075739;28;20500;-79
2021/05/08 03:54:45;;;;;;;2.42;2.22;;;;;;;1.55;69.43;96719.47;5074312;28;20028;-79
2021/05/08 03:57:11;;;;;;;2.20;2.03;;;;;;;1.54;69.46;96714.50;5075277;28;20043;-79
2021/05/08 03:59:37;;;;;;;2.63;2.28;;;;;;;1.53;69.56;96713.66;5075455;28;20044;-79
2021/05/08 04:02:04;;;;;;;2.22;2.03;;;;;;;1.50;69.70;96718.34;5075131;28;20071;-80
2021/05/08 04:04:30;;;;;;;2.35;2.15;;;;;;;1.49;69.73;96714.97;5075020;28;20048;-79
2021/05/08 04:06:56;;;;;;;2.30;2.10;;;;;;;1.47;69.69;96708.28;5075305;28;20052;-79
2021/05/08 04:09:22;;;;;;;2.50;2.30;;;;;;;1.46;69.62;96702.31;5075232;28;20481;-79
2021/05/08 04:11:48;;;;;;;2.78;2.58;;;;;;;1.46;69.61;96706.69;5075632;28;20046;-79
2021/05/08 04:14:15;;;;;;;3.15;2.67;;;;;;;1.46;69.75;96699.75;5075068;28;20048;-79
2021/05/08 04:16:41;;;;;;;2.83;2.30;;;;;;;1.45;69.80;96700.72;5074728;28;20040;-79
2021/05/08 04:19:07;;;;;;;2.45;2.25;;;;;;;1.47;69.92;96701.38;5074982;28;20041;-79
2021/05/08 04:21:33;;;;;;;2.22;2.00;;;;;;;1.49;70.08;96696.03;5075841;28;20055;-79
2021/05/08 04:23:59;;;;;;;2.22;2.03;;;;;;;1.51;70.05;96697.53;5074753;28;20040;-79
2021/05/08 04:26:27;;;;;;;2.10;1.90;;;;;;;1.52;70.02;96695.75;5074596;28;20381;-79
2021/05/08 04:28:53;;;;;;;2.50;2.30;;;;;;;1.54;70.09;96693.81;5074568;28;20044;-79
2021/05/08 04:31:20;;;;;;;2.42;2.20;;;;;;;1.55;70.07;96693.63;5074119;28;20370;-79
2021/05/08 04:33:47;;;;;;;2.03;1.92;;;;;;;1.64;70.21;96697.09;5074955;28;20036;-79
2021/05/08 04:36:13;;;;;;;3.45;2.38;;;;;;;1.72;70.27;96696.28;5074662;28;20044;-79
2021/05/08 04:38:40;;;;;;;2.28;2.13;;;;;;;1.82;70.49;96697.78;5074662;28;20044;-79
2021/05/08 04:41:07;;;;;;;2.55;2.13;;;;;;;1.93;70.35;96699.28;5074453;28;20033;-79
2021/05/08 04:43:33;;;;;;;2.67;2.47;;;;;;;2.10;70.30;96694.13;5073988;28;20036;-79
2021/05/08 04:46:00;;;;;;;2.42;2.22;;;;;;;2.34;70.33;96698.56;5074158;28;20040;-79
2021/05/08 04:48:30;;;;;;;2.30;2.20;;;;;;;2.62;70.17;96702.47;5074826;28;20032;-79
2021/05/08 04:50:56;;;;;;;2.40;2.20;;;;;;;2.91;69.92;96701.16;5073713;28;20036;-79
2021/05/08 04:53:24;;;;;;;2.67;2.25;;;;;;;3.22;69.83;96696.09;5074239;28;20077;-79
2021/05/08 04:55:50;;;;;;;2.20;2.08;;;;;;;3.54;69.54;96698.78;5074397;28;20040;-79
2021/05/08 04:58:16;;;;;;;2.22;1.90;;;;;;;3.96;69.23;96695.84;5073772;28;20037;-78
2021/05/08 05:00:43;;;;;;;2.30;2.10;;;;;;;4.40;69.13;96705.66;5074355;28;20048;-79
2021/05/08 05:03:09;;;;;;;4.07;2.35;;;;;;;4.79;68.22;96706.53;5074486;28;20037;-79
2021/05/08 05:05:35;;;;;;;1.95;1.83;;;;;;;5.06;67.81;96694.75;5074425;28;20037;-79
2021/05/08 05:08:02;;;;;;;2.22;2.03;;;;;;;5.42;67.32;96700.09;5074232;28;20047;-79
2021/05/08 05:10:28;;;;;;;2.20;2.10;;;;;;;5.54;66.32;96695.22;5073896;28;20473;-78
2021/05/08 05:12:55;;;;;;;2.70;1.98;;;;;;;5.70;66.25;96695.06;5073762;28;20041;-78
2021/05/08 05:15:22;;;;;;;2.03;1.92;;;;;;;5.88;65.71;96699.91;5074283;28;20040;-79
2021/05/08 05:17:49;;;;;;;2.65;2.40;;;;;;;5.95;65.22;96699.19;5073643;28;20400;-79
2021/05/08 05:20:15;;;;;;;1.98;1.80;;;;;;;6.00;64.73;96708.06;5074123;28;20048;-79
2021/05/08 05:22:41;;;;;;;2.20;2.00;;;;;;;6.26;64.84;96709.38;5073381;28;20052;-78
2021/05/08 05:25:08;;;;;;;2.10;1.92;;;;;;;6.55;64.42;96712.84;5073991;28;20400;-78
2021/05/08 05:27:34;;;;;;;2.15;1.95;;;;;;;6.76;63.76;96707.66;5073766;28;20037;-79
2021/05/08 05:30:01;;;;;;;1.83;1.73;;;;;;;6.95;63.39;96703.63;5072858;28;20492;-78
2021/05/08 05:32:27;;;;;;;1.92;1.83;;;;;;;7.24;62.90;96691.38;5073464;28;20401;-79
2021/05/08 05:34:53;;;;;;;2.00;1.60;;;;;;;7.51;62.87;96698.34;5073318;28;20059;-78
2021/05/08 05:37:19;;;;;;;1.65;1.55;;;;;;;7.79;62.15;96694.91;5074122;28;20033;-78
2021/05/08 05:39:45;;;;;;;1.95;1.70;;;;;;;7.73;60.87;96682.63;5073238;28;20048;-78
2021/05/08 05:42:11;;;;;;;1.95;1.85;;;;;;;7.90;60.80;96683.91;5073380;28;20036;-78
2021/05/08 05:44:38;;;;;;;1.85;1.75;;;;;;;8.12;60.52;96681.16;5073235;28;20044;-78
2021/05/08 05:47:07;;;;;;;1.90;1.77;;;;;;;8.34;60.11;96679.22;5073591;28;20044;-78
2021/05/08 05:49:33;;;;;;;1.50;1.40;;;;;;;8.57;59.39;96672.84;5073224;28;20044;-78
2021/05/08 05:51:59;;;;;;;1.50;1.48;;;;;;;8.81;58.94;96664.44;5073506;28;20041;-78
2021/05/08 05:54:25;;;;;;;1.70;1.60;;;;;;;9.02;58.22;96658.19;5073348;28;20036;-78
2021/05/08 05:56:52;;;;;;;1.90;1.80;;;;;;;9.17;57.51;96651.94;5073081;28;20043;-78
2021/05/08 05:59:18;;;;;;;1.90;1.80;;;;;;;9.33;57.20;96648.91;5072885;28;20489;-78
2021/05/08 06:01:44;;;;;;;1.77;1.67;;;;;;;9.53;56.54;96640.97;5072553;28;20036;-78
2021/05/08 06:04:10;;;;;;;1.80;1.70;;;;;;;9.77;56.04;96643.94;5073146;28;20037;-78
2021/05/08 06:06:36;;;;;;;2.17;1.98;;;;;;;9.83;55.37;96637.88;5073711;28;20043;-78
2021/05/08 06:09:03;;;;;;;1.73;1.63;;;;;;;10.10;54.81;96630.66;5073230;28;20496;-78
2021/05/08 06:11:29;;;;;;;1.70;1.60;;;;;;;10.50;54.48;96625.22;5073055;28;20032;-78
2021/05/08 06:13:55;;;;;;;2.45;1.92;;;;;;;10.74;53.30;96611.31;5073022;28;20048;-78
2021/05/08 06:16:21;;;;;;;2.03;1.80;;;;;;;10.75;52.63;96612.94;5072984;28;20041;-78
2021/05/08 06:18:48;;;;;;;2.67;2.00;;;;;;;10.76;52.25;96613.72;5073040;28;20037;-78
2021/05/08 06:21:14;;;;;;;1.90;1.80;;;;;;;10.88;52.17;96605.97;5073270;28;20040;-78
2021/05/08 06:23:40;;;;;;;1.88;1.73;;;;;;;11.02;51.32;96604.00;5072983;28;20044;-78
2021/05/08 06:26:06;;;;;;;2.88;1.80;;;;;;;11.14;50.87;96597.03;5073069;28;20041;-78
2021/05/08 06:28:32;;;;;;;1.73;1.60;;;;;;;11.38;50.57;96614.56;5072828;28;20033;-78
2021/05/08 06:30:59;;;;;;;1.70;1.60;;;;;;;11.73;50.10;96627.06;5071998;28;20044;-78
2021/05/08 06:33:25;;;;;;;1.50;1.40;;;;;;;12.06;49.47;96641.66;5072828;28;20047;-78
2021/05/08 06:35:51;;;;;;;2.17;1.98;;;;;;;12.13;48.46;96644.22;5073039;28;20032;-78
2021/05/08 06:38:18;;;;;;;2.30;2.10;;;;;;;11.88;47.97;96634.59;5073635;28;20024;-78
2021/05/08 06:40:44;;;;;;;1.98;1.88;;;;;;;11.78;47.66;96645.63;5072938;28;20041;-78
2021/05/08 06:43:11;;;;;;;1.60;1.50;;;;;;;11.91;48.11;96644.69;5072643;28;20461;-78
2021/05/08 06:45:37;;;;;;;1.55;1.45;;;;;;;12.24;47.69;96642.66;5072763;28;20024;-78
2021/05/08 06:48:06;;;;;;;1.70;1.60;;;;;;;12.40;46.78;96634.13;5072308;28;20052;-77
2021/05/08 06:50:33;;;;;;;1.60;1.50;;;;;;;12.48;46.27;96630.38;5072508;28;20043;-78
2021/05/08 06:53:00;;;;;;;1.33;1.23;;;;;;;12.40;45.90;96628.88;5072279;28;20052;-77
2021/05/08 06:55:26;;;;;;;1.50;1.40;;;;;;;12.30;45.35;96634.66;5072443;28;20037;-77
2021/05/08 06:57:53;;;;;;;1.60;1.50;;;;;;;12.25;45.60;96628.50;5072758;28;21380;-77
2021/05/08 07:00:19;;;;;;;1.60;1.48;;;;;;;12.43;45.71;96622.34;5073185;28;20393;-77
2021/05/08 07:02:46;;;;;;;1.67;1.58;;;;;;;12.48;44.91;96611.97;5072753;28;20052;-77
2021/05/08 07:05:12;;;;;;;1.60;1.50;;;;;;;12.46;44.86;96608.78;5072583;28;20040;-77
2021/05/08 07:07:38;;;;;;;2.30;1.60;;;;;;;12.25;44.64;96592.47;5071863;28;20393;-77
2021/05/08 07:10:06;;;;;;;1.73;1.58;;;;;;;12.24;45.03;96603.22;5072685;28;20461;-77
2021/05/08 07:12:32;;;;;;;1.98;1.50;;;;;;;12.57;45.03;96603.50;5072479;28;20060;-77
2021/05/08 07:14:58;;;;;;;1.40;1.30;;;;;;;12.93;44.66;96601.72;5074433;28;20048;-77
2021/05/08 07:17:24;;;;;;;2.30;1.40;;;;;;;13.09;44.17;96604.72;5077104;28;20028;-77
2021/05/08 07:19:51;;;;;;;1.60;1.38;;;;;;;13.09;43.72;96621.31;5076172;28;20044;-77
2021/05/08 07:22:17;;;;;;;3.03;1.77;;;;;;;12.93;43.77;96640.41;5075739;28;20041;-77
2021/05/08 07:24:43;;;;;;;1.60;1.38;;;;;;;12.88;43.75;96656.88;5075903;28;20055;-77
2021/05/08 07:27:09;;;;;;;1.50;1.40;;;;;;;12.76;43.53;96662.13;5076435;28;20051;-77
2021/05/08 07:29:35;;;;;;;1.60;1.50;;;;;;;12.80;43.53;96667.75;5075719;28;20397;-77
2021/05/08 07:32:02;;;;;;;1.52;1.23;;;;;;;12.96;43.23;96664.44;5075670;28;20048;-77
2021/05/08 07:34:28;;;;;;;1.40;1.30;;;;;;;12.79;42.99;96663.50;5075675;28;20040;-77
2021/05/08 07:36:54;;;;;;;1.20;1.20;;;;;;;12.66;42.75;96656.63;5075799;28;20048;-77
2021/05/08 07:39:20;;;;;;;1.70;1.20;;;;;;;12.45;42.70;96665.00;5075622;28;20036;-77
2021/05/08 07:41:46;;;;;;;2.45;0.90;;;;;;;12.37;42.95;96658.25;5075438;28;20036;-77
2021/05/08 07:44:13;;;;;;;1.20;1.10;;;;;;;12.66;43.12;96653.19;5075977;28;20036;-78
2021/05/08 07:46:39;;;;;;;1.40;1.23;;;;;;;12.91;42.73;96653.78;5075439;28;20040;-77
2021/05/08 07:49:05;;;;;;;1.08;1.08;;;;;;;13.05;42.47;96645.69;5074059;28;20036;-77
2021/05/08 07:51:32;;;;;;;1.58;0.90;;;;;;;13.49;42.34;96640.88;5075472;28;20047;-77
2021/05/08 07:53:58;;;;;;;0.90;0.90;;;;;;;13.94;41.69;96638.38;5075861;28;20037;-77
2021/05/08 07:56:24;;;;;;;1.50;1.40;;;;;;;14.38;41.35;96645.75;5075251;28;20040;-77
2021/05/08 07:58:50;;;;;;;1.10;1.10;;;;;;;14.76;40.80;96641.69;5073973;28;20049;-77
2021/05/08 08:01:16;;;;;;;1.23;1.13;;;;;;;15.00;40.16;96640.50;5075506;28;20048;-77
2021/05/08 08:03:43;;;;;;;1.33;1.00;;;;;;;15.10;39.48;96646.97;5074898;28;20065;-77
2021/05/08 08:06:09;;;;;;;1.65;1.10;;;;;;;15.07;39.18;96647.44;5075133;28;20036;-77
2021/05/08 08:08:35;;;;;;;1.45;1.20;;;;;;;15.28;39.30;96645.91;5074967;28;20036;-77
2021/05/08 08:11:01;;;;;;;0.95;0.90;;;;;;;15.40;38.53;96638.69;5075356;28;20514;-77
2021/05/08 08:13:28;;;;;;;0.85;0.85;;;;;;;15.70;38.64;96646.22;5074719;28;20504;-77
2021/05/08 08:15:54;;;;;;;0.93;0.90;;;;;;;15.82;37.84;96643.47;5075036;28;20045;-77
2021/05/08 08:18:22;;;;;;;1.13;1.13;;;;;;;16.01;37.42;96641.31;5075223;28;20404;-77
2021/05/08 08:20:48;;;;;;;1.02;1.02;;;;;;;16.24;37.33;96637.59;5074707;28;20039;-77
2021/05/08 08:23:15;;;;;;;1.30;1.30;;;;;;;16.48;37.02;96655.81;5074562;28;20369;-77
2021/05/08 08:25:41;;;;;;;1.50;1.40;;;;;;;16.71;36.64;96649.41;5075112;28;20055;-76
2021/05/08 08:28:07;;;;;;;0.82;0.82;;;;;;;16.53;35.89;96642.66;5074721;28;20393;-77
2021/05/08 08:30:34;;;;;;;1.13;1.13;;;;;;;16.33;35.98;96649.31;5074559;28;20051;-77
2021/05/08 08:33:00;;;;;;;1.15;1.10;;;;;;;16.36;35.81;96650.69;5074721;28;20047;-77
2021/05/08 08:35:26;;;;;;;1.13;1.13;;;;;;;16.13;35.67;96649.94;5073257;28;20047;-77
2021/05/08 08:37:52;;;;;;;1.23;1.23;;;;;;;15.71;35.73;96647.81;5073356;28;20408;-77
2021/05/08 08:40:21;;;;;;;1.20;1.15;;;;;;;15.67;36.38;96648.56;5074349;28;20040;-77
2021/05/08 08:42:47;;;;;;;1.40;1.05;;;;;;;15.76;36.46;96639.19;5074864;28;20473;-77
2021/05/08 08:45:13;;;;;;;2.08;1.10;;;;;;;15.90;36.28;96626.41;5074429;28;20389;-77
2021/05/08 08:47:41;;;;;;;1.23;1.10;;;;;;;15.98;36.27;96631.22;5074441;28;20037;-77
2021/05/08 08:50:12;;;;;;;1.40;1.30;;;;;;;15.96;36.31;96634.13;5074941;28;20063;-77
2021/05/08 08:52:38;;;;;;;1.13;1.10;;;;;;;15.97;36.58;96627.78;5074148;28;20044;-77
2021/05/08 08:55:09;;;;;;;2.35;1.38;;;;;;;16.15;36.56;96633.81;5074291;28;20039;-77
2021/05/08 08:57:40;;;;;;;1.48;1.15;;;;;;;16.06;36.48;96614.13;5073899;28;20472;-77
2021/05/08 09:00:13;;;;;;;1.02;1.00;;;;;;;16.01;36.34;96618.31;5074342;28;20059;-77
2021/05/08 09:02:42;;;;;;;1.30;1.25;;;;;;;16.01;36.66;96628.88;5074650;28;20048;-77
2021/05/08 09:05:11;;;;;;;1.77;1.35;;;;;;;16.03;36.59;96621.50;5074083;28;20043;-77
2021/05/08 09:07:42;;;;;;;1.80;1.58;;;;;;;15.65;36.82;96619.72;5073717;28;20039;-77
2021/05/08 09:10:19;;;;;;;1.90;1.15;;;;;;;15.57;37.41;96620.16;5074763;28;20043;-77
2021/05/08 09:12:45;;;;;;;0.95;0.95;;;;;;;15.72;37.64;96627.50;5073069;28;20041;-77
2021/05/08 09:15:12;;;;;;;1.15;1.05;;;;;;;15.70;37.64;96614.47;5073983;28;20479;-77
2021/05/08 09:17:47;;;;;;;2.00;1.10;;;;;;;15.80;37.15;96601.41;5073722;28;20048;-77
2021/05/08 09:20:14;;;;;;;1.20;1.10;;;;;;;15.70;37.48;96595.19;5073677;28;20037;-77
2021/05/08 09:22:42;;;;;;;1.20;1.20;;;;;;;15.46;37.65;96592.00;5073402;28;20044;-77
2021/05/08 09:25:11;;;;;;;1.48;0.88;;;;;;;15.15;37.83;96595.00;5073857;28;20036;-77
2021/05/08 09:27:40;;;;;;;2.08;0.98;;;;;;;15.17;38.11;96592.94;5073268;28;20043;-77
2021/05/08 09:30:08;;;;;;;0.90;0.90;;;;;;;15.07;37.74;96597.28;5073014;28;20055;-77
2021/05/08 09:32:37;;;;;;;1.38;0.98;;;;;;;15.22;37.91;96597.47;5072400;28;20048;-76
2021/05/08 09:35:23;;;;;;;1.17;1.08;;;;;;;15.57;38.09;96599.00;5073014;28;20492;-77
2021/05/08 09:37:51;;;;;;;1.10;1.10;;;;;;;15.67;37.42;96585.91;5072430;28;20044;-77
2021/05/08 09:40:20;;;;;;;1.10;1.05;;;;;;;15.79;37.26;96580.50;5062842;28;20063;-77
2021/05/08 09:42:57;;;;;;;0.90;0.90;;;;;;;16.05;36.56;96584.22;5073641;28;20039;-77
2021/05/08 09:45:24;;;;;;;1.00;0.90;;;;;;;16.03;36.54;96592.41;5073631;28;20047;-77
2021/05/08 09:47:52;;;;;;;1.67;1.05;;;;;;;16.03;36.93;96591.63;5073253;28;20043;-77
2021/05/08 09:50:20;;;;;;;0.98;0.98;;;;;;;15.88;36.78;96589.59;5073161;28;20033;-77
2021/05/08 09:52:51;;;;;;;1.08;0.98;;;;;;;15.95;36.82;96589.41;5073736;28;20036;-77
2021/05/08 09:55:19;;;;;;;1.10;1.10;;;;;;;15.73;36.52;96579.66;5073027;28;20028;-77
2021/05/08 09:58:19;;;;;;;1.15;1.00;;;;;;;15.74;37.13;96586.53;5073964;28;20373;-77
2021/05/08 10:00:47;;;;;;;0.80;0.80;;;;;;;15.97;36.71;96582.81;5065753;28;20049;-77
2021/05/08 10:03:16;;;;;;;1.30;1.20;;;;;;;16.28;36.60;96571.75;5073476;28;20052;-76
2021/05/08 10:05:49;;;;;;;0.90;0.90;;;;;;;16.54;35.76;96570.13;5073202;28;20047;-77
2021/05/08 10:08:16;;;;;;;2.05;0.98;;;;;;;16.73;35.95;96563.38;5073411;28;20461;-77
2021/05/08 10:10:42;;;;;;;0.70;0.70;;;;;;;17.21;35.93;96561.56;5072980;28;20035;-77
2021/05/08 10:13:11;;;;;;;0.93;0.90;;;;;;;17.39;34.81;96564.88;5072957;28;20396;-76
2021/05/08 10:15:40;;;;;;;0.90;0.90;;;;;;;17.68;34.62;96549.34;5073752;28;20052;-76
2021/05/08 10:18:12;;;;;;;1.00;0.98;;;;;;;17.95;33.48;96545.69;5073140;28;20057;-76
2021/05/08 10:20:40;;;;;;;1.58;0.80;;;;;;;18.12;33.68;96545.47;5072981;28;20037;-77
2021/05/08 10:23:17;;;;;;;1.00;1.00;;;;;;;18.14;33.81;96543.34;5073225;28;20037;-76
2021/05/08 10:25:44;;;;;;;1.05;0.95;;;;;;;17.95;33.60;96537.75;5072432;28;20048;-77
2021/05/08 10:28:11;;;;;;;0.80;0.80;;;;;;;17.52;33.88;96540.50;5071737;28;20032;-77
2021/05/08 10:30:42;;;;;;;0.80;0.80;;;;;;;17.27;34.54;96535.91;5072681;28;20055;-77
2021/05/08 10:33:13;;;;;;;1.45;1.10;;;;;;;17.31;34.65;96538.84;5073230;28;20037;-77
2021/05/08 10:35:42;;;;;;;0.95;0.70;;;;;;;17.28;34.33;96523.44;5058407;28;20032;-77
2021/05/08 10:38:27;;;;;;;2.97;0.90;;;;;;;17.16;34.54;96524.47;5073253;28;20646;-77
2021/05/08 10:41:05;;;;;;;1.48;1.08;;;;;;;17.02;34.31;96520.66;5073171;28;20048;-76
2021/05/08 10:43:50;;;;;;;0.93;0.90;;;;;;;16.83;34.80;96520.31;5073258;28;20028;-77
2021/05/08 10:46:20;;;;;;;2.28;0.77;;;;;;;16.51;34.85;96513.19;5072860;28;20039;-76
2021/05/08 10:49:12;;;;;;;1.30;0.85;;;;;;;16.29;35.72;96518.56;5073188;28;20028;-77
2021/05/08 10:51:56;;;;;;;0.90;0.88;;;;;;;16.13;35.78;96511.56;5076758;28;20039;-77
2021/05/08 10:54:44;;;;;;;0.88;0.88;;;;;;;16.18;35.78;96512.38;5066515;28;20040;-77
2021/05/08 10:57:14;;;;;;;0.75;0.75;;;;;;;16.24;36.04;96507.94;5076583;28;20040;-77
2021/05/08 11:00:05;;;;;;;0.80;0.80;;;;;;;16.42;36.32;96509.38;5076066;28;20380;-77
2021/05/08 11:02:41;;;;;;;1.35;0.80;;;;;;;16.48;35.75;96504.94;5076191;28;20048;-77
2021/05/08 11:05:31;;;;;;;1.13;0.80;;;;;;;16.47;35.36;96500.72;5075979;28;20040;-77
2021/05/08 11:07:58;;;;;;;1.00;0.70;;;;;;;16.54;35.85;96504.72;5076210;28;20480;-77
2021/05/08 11:10:33;;;;;;;3.30;0.70;;;;;;;16.45;33.82;96490.38;5076578;28;20036;-77
2021/05/08 11:13:10;;;;;;;0.77;0.77;;;;;;;16.36;35.45;96495.34;5076282;28;20032;-76
2021/05/08 11:15:51;;;;;;;0.82;0.82;;;;;;;16.49;35.60;96486.16;5076817;28;20510;-76
2021/05/08 11:18:30;;;;;;;0.90;0.90;;;;;;;16.24;35.53;96482.28;5076397;28;20033;-77
2021/05/08 11:21:00;;;;;;;0.80;0.80;;;;;;;16.29;35.80;96483.34;5076366;28;20028;-77
2021/05/08 11:23:39;;;;;;;0.50;0.50;;;;;;;16.42;35.70;96475.81;5076323;28;20050;-77
2021/05/08 11:26:26;;;;;;;0.80;0.80;;;;;;;16.53;35.67;96487.25;5076629;28;20055;-77
2021/05/08 11:28:59;;;;;;;0.73;0.73;;;;;;;16.64;34.86;96470.38;5063397;28;20028;-77
2021/05/08 11:31:51;;;;;;;1.15;0.70;;;;;;;16.61;33.73;96465.59;5076445;28;20044;-77
2021/05/08 11:34:25;;;;;;;0.73;0.73;;;;;;;16.65;35.38;96465.88;5059389;28;20032;-77
2021/05/08 11:36:51;;;;;;;;;;;;;;;16.70;34.09;96457.19;5076541;28;20043;-77
2021/05/08 11:39:26;;;;;;;0.60;0.60;;;;;;;16.81;34.68;96449.03;5075717;28;19916;-77
2021/05/08 11:41:54;;;;;;;;;;;;;;;16.83;34.13;96444.28;5076526;28;20043;-77
2021/05/08 11:44:26;;;;;;;0.60;0.60;;;;;;;16.91;35.07;96439.56;5075472;28;19913;-77